Time;durP1;ratioP1;P1;durP2;ratioP2;P2;SDS_P1;SDS_P2;PMS_P1;PMS_P2;Temp;Humidity;BMP_temperature;BMP_pressure;BME280_temperature;BME280_humidity;BME280_pressure;Samples;Min_cycle;Max_cycle;Signal;HPM_P1;HPM_P2
2022/08/25 00:02:03;;;;;;;3.17;1.85;;;;;;;;;;5105075;27;20079;-41
2022/08/25 00:04:29;;;;;;;1.10;0.80;;;;;;;;;;5105982;28;20054;-42
2022/08/25 00:06:54;;;;;;;1.80;1.17;;;;;;;;;;5106899;28;20036;-45
2022/08/25 00:09:22;;;;;;;3.03;1.75;;;;;;;;;;5101087;28;20048;-42
2022/08/25 00:11:48;;;;;;;1.88;1.02;;;;;;;;;;5104619;28;20094;-41
2022/08/25 00:14:22;;;;;;;2.65;1.48;;;;;;;;;;5105945;28;20582;-45
2022/08/25 00:16:47;;;;;;;2.15;1.58;;;;;;;;;;5105962;28;20050;-42
2022/08/25 00:19:15;;;;;;;1.98;1.30;;;;;;;;;;5102957;28;20036;-43
2022/08/25 00:21:41;;;;;;;11.60;1.83;;;;;;;;;;5105392;28;20040;-48
2022/08/25 00:24:07;;;;;;;2.78;1.13;;;;;;;;;;5104273;28;20619;-42
2022/08/25 00:26:33;;;;;;;2.40;1.67;;;;;;;;;;5105041;28;20118;-46
2022/08/25 00:28:58;;;;;;;3.22;2.10;;;;;;;;;;5104702;28;20498;-45
2022/08/25 00:31:24;;;;;;;4.75;1.83;;;;;;;;;;5106285;28;20185;-41
2022/08/25 00:33:49;;;;;;;1.13;1.02;;;;;;;;;;5105901;28;20052;-43
2022/08/25 00:36:16;;;;;;;1.50;1.08;;;;;;;;;;5106157;28;20409;-43
2022/08/25 00:38:42;;;;;;;2.50;1.25;;;;;;;;;;5105980;28;20046;-44
2022/08/25 00:41:10;;;;;;;1.20;0.82;;;;;;;;;;5104024;28;20036;-43
2022/08/25 00:43:43;;;;;;;4.57;1.20;;;;;;;;;;5105403;28;20052;-42
2022/08/25 00:46:09;;;;;;;1.40;0.70;;;;;;;;;;5104374;28;20047;-42
2022/08/25 00:48:35;;;;;;;2.35;1.38;;;;;;;;;;5106054;28;20126;-43
2022/08/25 00:51:01;;;;;;;1.77;0.90;;;;;;;;;;5105271;28;20054;-42
2022/08/25 00:53:27;;;;;;;6.10;1.35;;;;;;;;;;5105943;28;20059;-42
2022/08/25 00:55:52;;;;;;;2.78;1.10;;;;;;;;;;5105095;28;20047;-47
2022/08/25 00:58:19;;;;;;;1.35;0.80;;;;;;;;;;5105134;28;20113;-46
2022/08/25 01:00:47;;;;;;;2.30;1.25;;;;;;;;;;5105678;28;20054;-42
2022/08/25 01:03:12;;;;;;;2.95;0.73;;;;;;;;;;5104056;28;20828;-45
2022/08/25 01:05:39;;;;;;;4.60;1.45;;;;;;;;;;5104882;28;20123;-43
2022/08/25 01:08:06;;;;;;;1.30;0.82;;;;;;;;;;5105646;28;20043;-43
2022/08/25 01:10:32;;;;;;;2.08;0.93;;;;;;;;;;5105494;28;20140;-42
2022/08/25 01:13:04;;;;;;;1.63;1.15;;;;;;;;;;5104859;28;20144;-44
2022/08/25 01:15:30;;;;;;;1.65;1.33;;;;;;;;;;5104404;28;20368;-42
2022/08/25 01:17:56;;;;;;;1.15;0.63;;;;;;;;;;5104998;28;20176;-44
2022/08/25 01:20:24;;;;;;;1.50;0.98;;;;;;;;;;5104785;28;20048;-42
2022/08/25 01:22:50;;;;;;;1.58;1.20;;;;;;;;;;5105435;28;20438;-43
2022/08/25 01:25:15;;;;;;;2.78;1.40;;;;;;;;;;5104556;28;20126;-45
2022/08/25 01:27:41;;;;;;;1.17;0.90;;;;;;;;;;5105123;28;20535;-44
2022/08/25 01:30:06;;;;;;;3.45;1.38;;;;;;;;;;5105128;28;20054;-43
2022/08/25 01:32:32;;;;;;;0.90;0.70;;;;;;;;;;5108677;28;20050;-44
2022/08/25 01:34:57;;;;;;;1.13;0.70;;;;;;;;;;5108403;28;20044;-44
2022/08/25 01:37:23;;;;;;;2.17;1.30;;;;;;;;;;5107731;28;20526;-42
2022/08/25 01:39:48;;;;;;;1.60;1.05;;;;;;;;;;5108990;28;20047;-42
2022/08/25 01:42:22;;;;;;;2.15;1.58;;;;;;;;;;5107901;28;20052;-43
2022/08/25 01:44:47;;;;;;;2.38;1.17;;;;;;;;;;5108096;28;20035;-44
2022/08/25 01:47:13;;;;;;;1.25;0.93;;;;;;;;;;5107740;28;20043;-41
2022/08/25 01:49:38;;;;;;;2.20;1.15;;;;;;;;;;5107293;28;20126;-44
2022/08/25 01:52:11;;;;;;;1.92;1.23;;;;;;;;;;5107446;28;20071;-45
2022/08/25 01:54:36;;;;;;;1.27;0.77;;;;;;;;;;5108571;28;20116;-44
2022/08/25 01:57:01;;;;;;;2.97;1.58;;;;;;;;;;5108299;28;20151;-45
2022/08/25 01:59:27;;;;;;;3.17;1.30;;;;;;;;;;5108160;28;20101;-48
2022/08/25 02:01:52;;;;;;;3.72;1.65;;;;;;;;;;5108101;28;20044;-44
2022/08/25 02:04:18;;;;;;;3.15;1.55;;;;;;;;;;5107844;28;20122;-42
2022/08/25 02:06:43;;;;;;;3.97;1.98;;;;;;;;;;5107721;27;20713;-43
2022/08/25 02:09:13;;;;;;;3.25;1.55;;;;;;;;;;5108394;28;20156;-42
2022/08/25 02:11:41;;;;;;;4.93;1.05;;;;;;;;;;5108393;28;20043;-41
2022/08/25 02:14:07;;;;;;;2.65;1.23;;;;;;;;;;5105774;28;20582;-42
2022/08/25 02:16:34;;;;;;;1.65;1.00;;;;;;;;;;5107994;28;20043;-44
2022/08/25 02:18:59;;;;;;;3.47;1.60;;;;;;;;;;5104925;28;20062;-44
2022/08/25 02:21:25;;;;;;;4.60;1.80;;;;;;;;;;5107289;28;20043;-44
2022/08/25 02:23:50;;;;;;;3.40;1.50;;;;;;;;;;5108332;28;20061;-40
2022/08/25 02:26:17;;;;;;;3.83;1.20;;;;;;;;;;5107300;28;20058;-43
2022/08/25 02:28:43;;;;;;;2.17;1.33;;;;;;;;;;5106978;28;20044;-44
2022/08/25 02:31:14;;;;;;;1.35;0.95;;;;;;;;;;5108515;28;20039;-42
2022/08/25 02:33:40;;;;;;;2.28;0.95;;;;;;;;;;5106847;28;20479;-44
2022/08/25 02:36:33;;;;;;;2.53;1.10;;;;;;;;;;5104971;28;20039;-44
2022/08/25 02:38:58;;;;;;;4.45;1.27;;;;;;;;;;5107486;28;20051;-47
2022/08/25 02:41:24;;;;;;;2.90;1.95;;;;;;;;;;5107591;28;20067;-46
2022/08/25 02:43:50;;;;;;;2.00;1.23;;;;;;;;;;5108040;28;20047;-45
2022/08/25 02:46:17;;;;;;;3.63;2.25;;;;;;;;;;5107503;28;20063;-45
2022/08/25 02:48:43;;;;;;;1.90;1.42;;;;;;;;;;5107252;28;20043;-42
2022/08/25 02:51:09;;;;;;;2.13;1.63;;;;;;;;;;5106379;28;20507;-43
2022/08/25 02:53:35;;;;;;;2.15;1.20;;;;;;;;;;5107384;28;20035;-44
2022/08/25 02:56:00;;;;;;;3.60;1.77;;;;;;;;;;5106913;28;20086;-42
2022/08/25 02:58:26;;;;;;;3.40;1.58;;;;;;;;;;5107272;28;20045;-46
2022/08/25 03:00:52;;;;;;;3.72;0.85;;;;;;;;;;5106081;28;20044;-45
2022/08/25 03:03:18;;;;;;;11.00;1.33;;;;;;;;;;5107571;28;20135;-46
2022/08/25 03:05:43;;;;;;;1.58;1.20;;;;;;;;;;5106783;28;20043;-45
2022/08/25 03:08:09;;;;;;;1.08;0.73;;;;;;;;;;5106584;28;20064;-45
2022/08/25 03:10:35;;;;;;;2.38;1.15;;;;;;;;;;5105180;28;20929;-44
2022/08/25 03:13:00;;;;;;;2.53;0.95;;;;;;;;;;5107417;28;20047;-47
2022/08/25 03:15:26;;;;;;;4.35;0.80;;;;;;;;;;5104482;28;20120;-44
2022/08/25 03:17:53;;;;;;;1.27;0.75;;;;;;;;;;5106502;28;20511;-41
2022/08/25 03:20:19;;;;;;;3.10;1.85;;;;;;;;;;5106324;28;20189;-42
2022/08/25 03:22:44;;;;;;;1.80;0.95;;;;;;;;;;5104832;28;20067;-42
2022/08/25 03:27:53;;;;;;;3.38;1.95;;;;;;;;;;5103953;28;20112;-44
2022/08/25 03:30:19;;;;;;;1.83;1.20;;;;;;;;;;5107474;28;20502;-45
2022/08/25 03:32:44;;;;;;;1.35;1.05;;;;;;;;;;5086856;28;20048;-45
2022/08/25 03:35:10;;;;;;;14.45;1.27;;;;;;;;;;5105669;28;20184;-43
2022/08/25 03:37:36;;;;;;;2.20;0.98;;;;;;;;;;5104227;28;20047;-42
2022/08/25 03:40:05;;;;;;;1.40;1.08;;;;;;;;;;5105132;28;20067;-43
2022/08/25 03:42:30;;;;;;;1.83;1.25;;;;;;;;;;5106163;28;20123;-43
2022/08/25 03:44:56;;;;;;;2.20;0.88;;;;;;;;;;5106369;28;20126;-46
2022/08/25 03:47:24;;;;;;;1.00;0.60;;;;;;;;;;5107046;28;20043;-43
2022/08/25 03:49:50;;;;;;;2.53;1.45;;;;;;;;;;5106431;28;20405;-44
2022/08/25 03:52:17;;;;;;;2.53;1.70;;;;;;;;;;5106073;28;20059;-44
2022/08/25 03:54:43;;;;;;;3.92;1.40;;;;;;;;;;5104164;28;20039;-44
2022/08/25 03:57:08;;;;;;;3.85;1.98;;;;;;;;;;5106690;28;20043;-44
2022/08/25 03:59:36;;;;;;;2.15;1.45;;;;;;;;;;5105573;28;20048;-48
2022/08/25 04:02:02;;;;;;;1.42;0.75;;;;;;;;;;5106418;28;20728;-45
2022/08/25 04:04:27;;;;;;;2.53;1.25;;;;;;;;;;5103836;28;20054;-45
2022/08/25 04:06:53;;;;;;;3.70;1.17;;;;;;;;;;5103429;28;20039;-44
2022/08/25 04:09:18;;;;;;;2.97;1.48;;;;;;;;;;5105659;28;20043;-41
2022/08/25 04:11:43;;;;;;;2.83;1.27;;;;;;;;;;5086740;28;20506;-44
2022/08/25 04:14:09;;;;;;;1.13;0.55;;;;;;;;;;5103908;28;20047;-42
2022/08/25 04:16:34;;;;;;;2.35;1.33;;;;;;;;;;5102478;28;20189;-44
2022/08/25 04:19:01;;;;;;;1.65;1.15;;;;;;;;;;5105452;28;20051;-45
2022/08/25 04:21:26;;;;;;;2.10;1.27;;;;;;;;;;5105115;28;20042;-45
2022/08/25 04:23:52;;;;;;;2.05;1.23;;;;;;;;;;5106209;28;20118;-42
2022/08/25 04:26:19;;;;;;;3.85;1.50;;;;;;;;;;5104291;28;20080;-45
2022/08/25 04:28:44;;;;;;;2.85;1.45;;;;;;;;;;5105039;28;20816;-42
2022/08/25 04:31:10;;;;;;;3.58;1.48;;;;;;;;;;5104879;28;20035;-42
2022/08/25 04:33:37;;;;;;;0.95;0.65;;;;;;;;;;5102813;28;20138;-41
2022/08/25 04:36:03;;;;;;;2.28;1.45;;;;;;;;;;5104827;28;20044;-42
2022/08/25 04:38:29;;;;;;;2.63;1.60;;;;;;;;;;5103111;28;20147;-43
2022/08/25 04:40:58;;;;;;;3.53;2.10;;;;;;;;;;5104553;28;20044;-42
2022/08/25 04:43:24;;;;;;;2.25;1.42;;;;;;;;;;5104433;28;20039;-42
2022/08/25 04:45:49;;;;;;;1.95;1.15;;;;;;;;;;5105532;28;20035;-42
2022/08/25 04:48:14;;;;;;;2.33;1.48;;;;;;;;;;5105535;28;20689;-42
2022/08/25 04:50:40;;;;;;;2.58;1.20;;;;;;;;;;5103861;28;20135;-43
2022/08/25 04:53:05;;;;;;;2.75;1.23;;;;;;;;;;5103490;28;20047;-42
2022/08/25 04:55:30;;;;;;;1.92;1.20;;;;;;;;;;5103863;28;20438;-43
2022/08/25 04:57:56;;;;;;;4.35;1.52;;;;;;;;;;5104250;28;20447;-42
2022/08/25 05:00:21;;;;;;;3.13;1.30;;;;;;;;;;5105367;28;20059;-44
2022/08/25 05:02:46;;;;;;;2.95;1.85;;;;;;;;;;5104821;28;20480;-43
2022/08/25 05:05:12;;;;;;;3.42;1.38;;;;;;;;;;5105503;28;20077;-44
2022/08/25 05:07:37;;;;;;;7.50;1.25;;;;;;;;;;5106138;28;20122;-43
2022/08/25 05:10:02;;;;;;;2.88;1.83;;;;;;;;;;5109340;28;20628;-48
2022/08/25 05:12:28;;;;;;;3.20;1.10;;;;;;;;;;5107027;28;20050;-43
2022/08/25 05:14:53;;;;;;;1.95;1.13;;;;;;;;;;5105277;28;20510;-42
2022/08/25 05:17:18;;;;;;;4.25;1.83;;;;;;;;;;5105099;28;20051;-43
2022/08/25 05:19:44;;;;;;;2.47;1.23;;;;;;;;;;5108758;28;20101;-45
2022/08/25 05:22:09;;;;;;;2.42;1.23;;;;;;;;;;5109344;28;20063;-44
2022/08/25 05:24:34;;;;;;;2.60;1.45;;;;;;;;;;5109151;28;20044;-42
2022/08/25 05:27:00;;;;;;;4.15;1.45;;;;;;;;;;5109364;28;20046;-44
2022/08/25 05:29:26;;;;;;;2.75;1.40;;;;;;;;;;5107838;28;20104;-44
2022/08/25 05:31:52;;;;;;;5.82;5.25;;;;;;;;;;5108918;28;20123;-43
2022/08/25 05:34:18;;;;;;;2.17;1.63;;;;;;;;;;5108060;28;20121;-43
2022/08/25 05:36:43;;;;;;;6.88;2.05;;;;;;;;;;5107593;28;20046;-43
2022/08/25 05:39:09;;;;;;;1.85;1.33;;;;;;;;;;5106305;28;20031;-44
2022/08/25 05:41:35;;;;;;;1.75;1.42;;;;;;;;;;5108594;28;20039;-42
2022/08/25 05:44:00;;;;;;;3.42;2.28;;;;;;;;;;5106195;28;20513;-43
2022/08/25 05:46:25;;;;;;;4.25;2.53;;;;;;;;;;5107657;28;20093;-43
2022/08/25 05:48:51;;;;;;;1.60;1.25;;;;;;;;;;5107138;28;20039;-42
2022/08/25 05:51:16;;;;;;;3.08;2.28;;;;;;;;;;5108221;28;20122;-44
2022/08/25 05:53:43;;;;;;;5.13;1.88;;;;;;;;;;5108382;28;20469;-42
2022/08/25 05:56:09;;;;;;;2.92;1.08;;;;;;;;;;5109462;28;20047;-43
2022/08/25 05:58:35;;;;;;;18.95;2.60;;;;;;;;;;5107575;28;20066;-45
2022/08/25 06:03:46;;;;;;;0.98;0.88;;;;;;;;;;5109143;28;20112;-44
2022/08/25 06:06:12;;;;;;;1.67;1.00;;;;;;;;;;5106681;28;20043;-44
2022/08/25 06:08:37;;;;;;;8.45;2.30;;;;;;;;;;5107953;28;20080;-42
2022/08/25 06:11:02;;;;;;;4.50;1.80;;;;;;;;;;5103882;28;20527;-46
2022/08/25 06:13:29;;;;;;;1.05;0.73;;;;;;;;;;5107989;28;20067;-42
2022/08/25 06:15:57;;;;;;;2.90;1.92;;;;;;;;;;5106605;28;20535;-44
2022/08/25 06:18:23;;;;;;;4.55;2.83;;;;;;;;;;5107411;28;20763;-43
2022/08/25 06:20:48;;;;;;;16.67;3.28;;;;;;;;;;5102547;28;20490;-44
2022/08/25 06:23:13;;;;;;;4.00;1.80;;;;;;;;;;5106527;28;20047;-42
2022/08/25 06:25:39;;;;;;;1.92;1.30;;;;;;;;;;5106768;28;20035;-43
2022/08/25 06:28:04;;;;;;;15.85;2.20;;;;;;;;;;5105150;28;20063;-42
2022/08/25 06:30:30;;;;;;;1.88;1.00;;;;;;;;;;5106407;28;20512;-42
2022/08/25 06:32:55;;;;;;;5.22;0.68;;;;;;;;;;5105434;28;20571;-42
2022/08/25 06:35:21;;;;;;;12.27;1.23;;;;;;;;;;5105580;28;20523;-43
2022/08/25 06:37:46;;;;;;;2.92;1.58;;;;;;;;;;5106026;28;20039;-44
2022/08/25 06:40:15;;;;;;;8.98;2.05;;;;;;;;;;5107976;28;20120;-43
2022/08/25 06:42:40;;;;;;;3.13;1.95;;;;;;;;;;5107382;28;20043;-42
2022/08/25 06:45:06;;;;;;;3.95;1.33;;;;;;;;;;5108657;28;20608;-42
2022/08/25 06:47:31;;;;;;;7.93;1.80;;;;;;;;;;5106221;28;20047;-42
2022/08/25 06:49:57;;;;;;;3.30;1.83;;;;;;;;;;5103847;28;20601;-44
2022/08/25 06:52:22;;;;;;;7.28;4.65;;;;;;;;;;5107096;28;20043;-42
2022/08/25 06:54:48;;;;;;;12.07;4.85;;;;;;;;;;5107009;28;20079;-46
2022/08/25 06:57:14;;;;;;;7.50;5.63;;;;;;;;;;5107451;28;20043;-44
2022/08/25 06:59:39;;;;;;;9.35;6.70;;;;;;;;;;5107016;28;20506;-42
2022/08/25 07:02:05;;;;;;;18.52;7.93;;;;;;;;;;5107012;28;20043;-47
2022/08/25 07:04:31;;;;;;;9.30;8.07;;;;;;;;;;5107387;28;20047;-44
2022/08/25 07:06:57;;;;;;;18.90;6.75;;;;;;;;;;5106176;28;20498;-44
2022/08/25 07:09:23;;;;;;;8.15;6.43;;;;;;;;;;5105656;28;20054;-41
2022/08/25 07:11:48;;;;;;;7.78;6.25;;;;;;;;;;5106599;28;20047;-44
2022/08/25 07:14:15;;;;;;;9.02;4.30;;;;;;;;;;5106851;28;20075;-43
2022/08/25 07:16:42;;;;;;;8.20;7.18;;;;;;;;;;5107141;28;20136;-42
2022/08/25 07:19:07;;;;;;;4.72;4.20;;;;;;;;;;5104968;28;20075;-44
2022/08/25 07:21:34;;;;;;;4.00;3.53;;;;;;;;;;5107775;28;20180;-46
2022/08/25 07:24:00;;;;;;;5.65;3.28;;;;;;;;;;5106879;28;20040;-47
2022/08/25 07:26:27;;;;;;;4.13;2.28;;;;;;;;;;5106288;28;20061;-45
2022/08/25 07:28:53;;;;;;;5.15;3.10;;;;;;;;;;5104278;28;20040;-44
2022/08/25 07:31:18;;;;;;;2.83;1.50;;;;;;;;;;5106154;28;20078;-43
2022/08/25 07:36:28;;;;;;;3.33;1.35;;;;;;;;;;5103350;28;20046;-42
2022/08/25 07:38:54;;;;;;;3.95;1.55;;;;;;;;;;5103166;28;20047;-43
2022/08/25 07:41:19;;;;;;;1.40;0.85;;;;;;;;;;5106830;28;20048;-44
2022/08/25 07:43:46;;;;;;;1.20;0.77;;;;;;;;;;5104647;28;20051;-44
2022/08/25 07:46:11;;;;;;;1.15;0.70;;;;;;;;;;5105438;28;20035;-45
2022/08/25 07:48:37;;;;;;;4.40;1.45;;;;;;;;;;5106572;28;20059;-41
2022/08/25 07:51:06;;;;;;;3.78;1.13;;;;;;;;;;5101248;28;20048;-42
2022/08/25 07:53:31;;;;;;;6.72;1.75;;;;;;;;;;5104678;28;20051;-42
2022/08/25 07:55:57;;;;;;;3.85;1.05;;;;;;;;;;5106168;28;20092;-42
2022/08/25 07:58:22;;;;;;;1.05;0.73;;;;;;;;;;5105460;28;20071;-46
2022/08/25 08:00:50;;;;;;;1.45;0.82;;;;;;;;;;5100825;28;20051;-43
2022/08/25 08:03:15;;;;;;;4.78;1.38;;;;;;;;;;5103727;28;20584;-41
2022/08/25 08:05:41;;;;;;;4.28;2.00;;;;;;;;;;5103337;28;20047;-47
2022/08/25 08:08:06;;;;;;;4.30;1.95;;;;;;;;;;5104049;28;20046;-46
2022/08/25 08:10:32;;;;;;;3.67;2.72;;;;;;;;;;5104347;28;20491;-45
2022/08/25 08:12:59;;;;;;;3.42;2.40;;;;;;;;;;5104326;28;20051;-41
2022/08/25 08:15:24;;;;;;;3.45;2.15;;;;;;;;;;5104072;28;20066;-42
2022/08/25 08:17:50;;;;;;;2.88;2.30;;;;;;;;;;5101961;28;20441;-42
2022/08/25 08:20:16;;;;;;;4.40;2.08;;;;;;;;;;5105278;28;20143;-45
2022/08/25 08:22:44;;;;;;;5.07;2.85;;;;;;;;;;5104702;28;20139;-45
2022/08/25 08:25:10;;;;;;;3.83;3.22;;;;;;;;;;5104866;28;20055;-43
2022/08/25 08:27:35;;;;;;;5.18;3.22;;;;;;;;;;5103764;28;20043;-43
2022/08/25 08:30:01;;;;;;;4.45;2.92;;;;;;;;;;5104342;28;20089;-44
2022/08/25 08:32:26;;;;;;;2.00;1.50;;;;;;;;;;5103700;28;20505;-42
2022/08/25 08:34:52;;;;;;;3.22;1.85;;;;;;;;;;5105164;28;20051;-46
2022/08/25 08:37:17;;;;;;;1.88;0.82;;;;;;;;;;5105006;28;20050;-43
2022/08/25 08:39:43;;;;;;;1.70;1.25;;;;;;;;;;5106160;28;20101;-43
2022/08/25 08:42:17;;;;;;;6.45;2.78;;;;;;;;;;5109169;28;20051;-45
2022/08/25 08:44:45;;;;;;;3.50;1.67;;;;;;;;;;5107459;28;20059;-45
2022/08/25 08:47:23;;;;;;;4.78;2.50;;;;;;;;;;5109335;28;20798;-45
2022/08/25 08:49:53;;;;;;;1.63;0.95;;;;;;;;;;5109589;28;20153;-43
2022/08/25 08:52:19;;;;;;;;;;;;;;;;;;5106400;28;20125;-43
2022/08/25 08:54:45;;;;;;;9.65;1.92;;;;;;;;;;5106274;28;19915;-45
2022/08/25 08:57:15;;;;;;;3.95;1.70;;;;;;;;;;5108686;28;20525;-41
2022/08/25 08:59:46;;;;;;;1.73;1.05;;;;;;;;;;5109212;28;20064;-44
2022/08/25 09:02:15;;;;;;;2.22;1.80;;;;;;;;;;5106496;28;20113;-46
2022/08/25 09:04:44;;;;;;;2.22;1.52;;;;;;;;;;5107830;28;20105;-44
2022/08/25 09:07:15;;;;;;;2.70;1.67;;;;;;;;;;5108388;28;20043;-42
2022/08/25 09:09:41;;;;;;;2.42;1.48;;;;;;;;;;5108402;28;20043;-44
2022/08/25 09:12:20;;;;;;;5.30;2.95;;;;;;;;;;5107188;28;20053;-44
2022/08/25 09:14:57;;;;;;;5.78;3.17;;;;;;;;;;5106758;28;20072;-47
2022/08/25 09:17:22;;;;;;;10.70;2.65;;;;;;;;;;5107414;28;20060;-42
2022/08/25 09:19:59;;;;;;;2.65;2.08;;;;;;;;;;5107552;28;20058;-46
2022/08/25 09:22:25;;;;;;;4.53;2.55;;;;;;;;;;5107157;28;20098;-44
2022/08/25 09:24:56;;;;;;;8.60;2.58;;;;;;;;;;5107128;28;20594;-42
2022/08/25 09:27:21;;;;;;;6.72;3.28;;;;;;;;;;5107971;28;20538;-43
2022/08/25 09:29:54;;;;;;;4.45;2.55;;;;;;;;;;5108999;28;20051;-42
2022/08/25 09:32:21;;;;;;;3.53;2.22;;;;;;;;;;5107628;28;20086;-42
2022/08/25 09:34:46;;;;;;;4.70;3.58;;;;;;;;;;5108540;28;20396;-45
2022/08/25 09:37:11;;;;;;;7.63;1.35;;;;;;;;;;5108690;28;20498;-46
2022/08/25 09:39:37;;;;;;;3.92;1.55;;;;;;;;;;5107992;28;20048;-43
2022/08/25 09:42:03;;;;;;;1.95;1.15;;;;;;;;;;5106975;28;20044;-43
2022/08/25 09:44:32;;;;;;;5.00;2.00;;;;;;;;;;5107687;28;20035;-43
2022/08/25 09:47:00;;;;;;;1.40;1.15;;;;;;;;;;5108659;28;20058;-42
2022/08/25 09:49:37;;;;;;;2.30;1.70;;;;;;;;;;5107722;28;20051;-47
2022/08/25 09:52:21;;;;;;;2.00;1.38;;;;;;;;;;5105020;28;20597;-48
2022/08/25 09:54:48;;;;;;;3.55;2.03;;;;;;;;;;5105677;28;20120;-44
2022/08/25 09:57:31;;;;;;;1.58;1.20;;;;;;;;;;5108296;28;20043;-43
2022/08/25 10:00:07;;;;;;;1.08;0.60;;;;;;;;;;5105447;28;20085;-42
2022/08/25 10:02:32;;;;;;;1.63;0.95;;;;;;;;;;5107234;28;20056;-42
2022/08/25 10:04:58;;;;;;;3.78;1.13;;;;;;;;;;5105988;28;20031;-46
2022/08/25 10:07:24;;;;;;;9.10;1.88;;;;;;;;;;5106371;28;20055;-42
2022/08/25 10:09:54;;;;;;;7.00;2.75;;;;;;;;;;5107711;28;20043;-47
2022/08/25 10:12:39;;;;;;;4.68;1.85;;;;;;;;;;5106894;28;20542;-43
2022/08/25 10:15:16;;;;;;;3.20;1.38;;;;;;;;;;5106578;28;20071;-44
2022/08/25 10:17:41;;;;;;;3.80;1.63;;;;;;;;;;5108202;28;20074;-44
2022/08/25 10:20:10;;;;;;;3.08;1.63;;;;;;;;;;5103994;28;20082;-45
2022/08/25 10:22:36;;;;;;;2.50;1.50;;;;;;;;;;5105660;28;20439;-44
2022/08/25 10:25:03;;;;;;;3.72;2.45;;;;;;;;;;5107479;28;20063;-44
2022/08/25 10:27:28;;;;;;;5.03;1.83;;;;;;;;;;5106997;28;20040;-42
2022/08/25 10:29:54;;;;;;;7.00;1.30;;;;;;;;;;5104788;28;20471;-46
2022/08/25 10:32:39;;;;;;;6.13;1.80;;;;;;;;;;5107282;28;20116;-43
2022/08/25 10:35:13;;;;;;;3.30;1.95;;;;;;;;;;5107934;28;20059;-47
2022/08/25 10:37:50;;;;;;;12.70;3.20;;;;;;;;;;5107328;28;20035;-48
2022/08/25 10:40:25;;;;;;;1.67;1.00;;;;;;;;;;5107213;28;20073;-44
2022/08/25 10:42:56;;;;;;;6.60;2.92;;;;;;;;;;5107543;28;20451;-42
2022/08/25 10:45:44;;;;;;;3.80;2.05;;;;;;;;;;5105411;28;20391;-45
2022/08/25 10:48:11;;;;;;;12.27;2.13;;;;;;;;;;5106808;28;20047;-44
2022/08/25 10:50:41;;;;;;;3.65;1.60;;;;;;;;;;5106984;28;20482;-42
2022/08/25 10:53:07;;;;;;;3.60;1.58;;;;;;;;;;5105556;28;20071;-47
2022/08/25 10:55:38;;;;;;;4.28;1.45;;;;;;;;;;5105887;28;20043;-44
2022/08/25 10:58:18;;;;;;;0.80;0.63;;;;;;;;;;5106532;28;20051;-46
2022/08/25 11:00:43;;;;;;;;;;;;;;;;;;5107256;28;20062;-46
2022/08/25 11:03:16;;;;;;;1.47;0.70;;;;;;;;;;5106929;28;19915;-47
2022/08/25 11:05:42;;;;;;;3.22;1.05;;;;;;;;;;5104750;28;20086;-43
2022/08/25 11:08:13;;;;;;;3.33;1.23;;;;;;;;;;5105871;28;20047;-48
2022/08/25 11:10:51;;;;;;;3.78;1.70;;;;;;;;;;5107697;28;20058;-43
2022/08/25 11:13:23;;;;;;;0.82;0.60;;;;;;;;;;5105190;28;20463;-43
2022/08/25 11:15:51;;;;;;;2.35;1.02;;;;;;;;;;5105381;28;20070;-42
2022/08/25 11:18:16;;;;;;;7.72;1.77;;;;;;;;;;5105392;28;20059;-41
2022/08/25 11:20:57;;;;;;;2.10;1.13;;;;;;;;;;5107429;28;20058;-42
2022/08/25 11:23:22;;;;;;;5.35;2.95;;;;;;;;;;5106549;28;20055;-42
2022/08/25 11:25:52;;;;;;;2.03;0.88;;;;;;;;;;5105302;28;20055;-44
2022/08/25 11:28:20;;;;;;;2.45;1.33;;;;;;;;;;5107071;27;20035;-43
2022/08/25 11:30:45;;;;;;;1.65;1.25;;;;;;;;;;5105609;28;20127;-43
2022/08/25 11:33:12;;;;;;;1.52;0.95;;;;;;;;;;5106659;28;21071;-44
2022/08/25 11:35:40;;;;;;;3.63;1.70;;;;;;;;;;5105288;28;20059;-42
2022/08/25 11:38:20;;;;;;;2.50;1.55;;;;;;;;;;5106830;28;20063;-45
2022/08/25 11:40:48;;;;;;;1.55;0.88;;;;;;;;;;5104497;28;20047;-46
2022/08/25 11:43:28;;;;;;;9.95;1.10;;;;;;;;;;5105070;28;20040;-42
2022/08/25 11:45:58;;;;;;;7.18;1.75;;;;;;;;;;5106823;28;20032;-42
2022/08/25 11:48:29;;;;;;;6.35;1.42;;;;;;;;;;5106160;28;20845;-43
2022/08/25 11:51:03;;;;;;;4.15;1.58;;;;;;;;;;5105931;28;20414;-45
2022/08/25 11:53:28;;;;;;;2.65;0.98;;;;;;;;;;5106575;28;20050;-45
2022/08/25 11:55:55;;;;;;;2.58;1.23;;;;;;;;;;5105784;28;20047;-44
2022/08/25 11:58:27;;;;;;;3.67;2.10;;;;;;;;;;5106010;28;20079;-42
2022/08/25 12:00:53;;;;;;;2.20;1.27;;;;;;;;;;5106029;28;20047;-42
2022/08/25 12:03:30;;;;;;;2.30;0.73;;;;;;;;;;5104648;28;20046;-41
2022/08/25 12:06:14;;;;;;;2.33;1.33;;;;;;;;;;5106325;28;20566;-45
2022/08/25 12:08:58;;;;;;;2.28;0.80;;;;;;;;;;5103951;28;20074;-42
2022/08/25 12:11:43;;;;;;;6.00;1.92;;;;;;;;;;5104830;28;20035;-42
2022/08/25 12:14:21;;;;;;;1.85;0.90;;;;;;;;;;5106097;28;20050;-42
2022/08/25 12:16:55;;;;;;;2.40;1.08;;;;;;;;;;5104941;28;20073;-48
2022/08/25 12:19:25;;;;;;;8.82;1.92;;;;;;;;;;5104590;28;20047;-45
2022/08/25 12:21:51;;;;;;;1.30;1.13;;;;;;;;;;5104016;28;20039;-44
2022/08/25 12:24:19;;;;;;;1.52;1.23;;;;;;;;;;5104928;28;20082;-43
2022/08/25 12:26:45;;;;;;;1.70;1.10;;;;;;;;;;5086608;28;20475;-46
2022/08/25 12:29:10;;;;;;;4.05;0.90;;;;;;;;;;5106939;28;20071;-41
2022/08/25 12:31:46;;;;;;;1.27;0.88;;;;;;;;;;5105181;28;20089;-45
2022/08/25 12:34:29;;;;;;;0.57;0.47;;;;;;;;;;5105657;28;20057;-46
2022/08/25 12:36:56;;;;;;;2.70;0.93;;;;;;;;;;5105066;28;20495;-44
2022/08/25 12:39:27;;;;;;;1.27;0.88;;;;;;;;;;5105981;28;20043;-42
2022/08/25 12:41:58;;;;;;;1.40;0.82;;;;;;;;;;5105484;28;20035;-42
2022/08/25 12:44:41;;;;;;;1.55;0.93;;;;;;;;;;5101167;28;20036;-44
2022/08/25 12:47:09;;;;;;;1.95;0.90;;;;;;;;;;5100601;28;20036;-42
2022/08/25 12:49:34;;;;;;;3.20;1.15;;;;;;;;;;5104639;28;20070;-47
2022/08/25 12:52:03;;;;;;;3.35;1.52;;;;;;;;;;5105565;28;20075;-43
2022/08/25 12:54:34;;;;;;;1.95;0.98;;;;;;;;;;5105126;28;20086;-43
2022/08/25 12:57:04;;;;;;;1.83;1.33;;;;;;;;;;5104498;28;20104;-42
2022/08/25 12:59:37;;;;;;;2.17;0.87;;;;;;;;;;5104261;28;20043;-42
2022/08/25 13:02:21;;;;;;;1.65;0.73;;;;;;;;;;5106108;28;20267;-43
2022/08/25 13:05:05;;;;;;;0.55;0.38;;;;;;;;;;5103881;28;20822;-42
2022/08/25 13:07:50;;;;;;;1.25;0.95;;;;;;;;;;5104835;28;20039;-43
2022/08/25 13:10:34;;;;;;;1.92;1.15;;;;;;;;;;5104312;28;20088;-45
2022/08/25 13:13:05;;;;;;;1.05;0.60;;;;;;;;;;5103333;28;20170;-43
2022/08/25 13:15:33;;;;;;;1.70;0.55;;;;;;;;;;5102270;28;20040;-42
2022/08/25 13:18:18;;;;;;;0.95;0.43;;;;;;;;;;5105306;28;20047;-44
2022/08/25 13:20:44;;;;;;;1.15;0.57;;;;;;;;;;5105118;28;20156;-43
2022/08/25 13:23:09;;;;;;;0.98;0.50;;;;;;;;;;5105884;28;20040;-46
2022/08/25 13:25:37;;;;;;;3.85;0.75;;;;;;;;;;5104333;28;20036;-42
2022/08/25 13:28:05;;;;;;;1.95;0.65;;;;;;;;;;5106225;28;20039;-47
2022/08/25 13:30:30;;;;;;;2.45;0.93;;;;;;;;;;5107580;28;20047;-46
2022/08/25 13:32:56;;;;;;;3.15;1.45;;;;;;;;;;5109368;28;20134;-43
2022/08/25 13:35:24;;;;;;;7.32;1.42;;;;;;;;;;5108031;28;20498;-42
2022/08/25 13:37:50;;;;;;;0.60;0.50;;;;;;;;;;5107950;28;20043;-41
2022/08/25 13:40:18;;;;;;;1.05;0.68;;;;;;;;;;5108008;28;20050;-44
2022/08/25 13:42:45;;;;;;;2.15;1.05;;;;;;;;;;5105067;28;20050;-40
2022/08/25 13:45:19;;;;;;;6.75;1.77;;;;;;;;;;5106713;28;20038;-42
2022/08/25 13:47:45;;;;;;;3.85;1.27;;;;;;;;;;5105842;28;20800;-41
2022/08/25 13:50:30;;;;;;;3.10;1.33;;;;;;;;;;5108731;28;20040;-43
2022/08/25 13:52:57;;;;;;;0.98;0.52;;;;;;;;;;5107801;28;20058;-42
2022/08/25 13:55:43;;;;;;;3.25;1.17;;;;;;;;;;5106963;28;20051;-43
2022/08/25 13:58:12;;;;;;;1.17;0.75;;;;;;;;;;5089690;28;20452;-45
2022/08/25 14:00:48;;;;;;;2.17;1.10;;;;;;;;;;5106694;28;20144;-40
2022/08/25 14:03:33;;;;;;;1.27;0.90;;;;;;;;;;5107437;28;20044;-43
2022/08/25 14:06:13;;;;;;;7.70;5.57;;;;;;;;;;5106607;28;20407;-43
2022/08/25 14:08:43;;;;;;;2.08;1.05;;;;;;;;;;5106158;28;20055;-45
2022/08/25 14:11:27;;;;;;;2.20;1.45;;;;;;;;;;5108164;28;20062;-42
2022/08/25 14:14:03;;;;;;;8.15;1.73;;;;;;;;;;5107144;28;20511;-40
2022/08/25 14:16:31;;;;;;;2.45;1.05;;;;;;;;;;5102246;28;20039;-42
2022/08/25 14:18:59;;;;;;;3.17;2.90;;;;;;;;;;5105008;28;20901;-42
2022/08/25 14:21:26;;;;;;;2.28;1.13;;;;;;;;;;5105076;28;20096;-48
2022/08/25 14:23:52;;;;;;;2.05;1.02;;;;;;;;;;5108319;28;20044;-43
2022/08/25 14:26:17;;;;;;;1.50;0.98;;;;;;;;;;5107617;28;20039;-42
2022/08/25 14:28:42;;;;;;;1.05;0.77;;;;;;;;;;5105014;28;20537;-47
2022/08/25 14:31:10;;;;;;;1.13;0.50;;;;;;;;;;5103415;28;20090;-42
2022/08/25 14:33:41;;;;;;;1.92;0.75;;;;;;;;;;5105822;28;20043;-46
2022/08/25 14:36:07;;;;;;;1.65;0.98;;;;;;;;;;5105971;28;20071;-42
2022/08/25 14:38:33;;;;;;;2.20;0.63;;;;;;;;;;5104863;28;20581;-45
2022/08/25 14:40:58;;;;;;;2.47;0.90;;;;;;;;;;5106168;28;20043;-42
2022/08/25 14:43:24;;;;;;;1.33;0.65;;;;;;;;;;5107405;28;20085;-43
2022/08/25 14:45:49;;;;;;;0.93;0.63;;;;;;;;;;5107863;28;20055;-41
2022/08/25 14:48:23;;;;;;;2.80;1.27;;;;;;;;;;5108222;28;20043;-45
2022/08/25 14:50:48;;;;;;;3.20;1.02;;;;;;;;;;5106257;28;20126;-48
2022/08/25 14:53:13;;;;;;;4.22;1.85;;;;;;;;;;5104126;28;20786;-41
2022/08/25 14:55:39;;;;;;;2.38;1.58;;;;;;;;;;5107203;28;20043;-41
2022/08/25 14:58:04;;;;;;;0.95;0.38;;;;;;;;;;5107478;28;20046;-47